sensor_id;sensor_type;location;lat;lon;timestamp;temperature;humidity
13426;DHT22;6785;57.918;12.530;2023-06-22T00:01:19;16.30;99.90
13426;DHT22;6785;57.918;12.530;2023-06-22T00:03:47;16.30;99.90
13426;DHT22;6785;57.918;12.530;2023-06-22T00:06:14;16.30;99.90
13426;DHT22;6785;57.918;12.530;2023-06-22T00:08:43;16.40;99.90
13426;DHT22;6785;57.918;12.530;2023-06-22T00:11:10;16.40;99.90
13426;DHT22;6785;57.918;12.530;2023-06-22T00:13:37;16.30;99.90
13426;DHT22;6785;57.918;12.530;2023-06-22T00:16:04;16.30;99.90
13426;DHT22;6785;57.918;12.530;2023-06-22T00:18:31;16.30;99.90
13426;DHT22;6785;57.918;12.530;2023-06-22T00:20:59;16.30;99.90
13426;DHT22;6785;57.918;12.530;2023-06-22T00:23:27;16.30;99.90
13426;DHT22;6785;57.918;12.530;2023-06-22T00:25:55;16.20;99.90
13426;DHT22;6785;57.918;12.530;2023-06-22T00:28:22;16.20;99.90
13426;DHT22;6785;57.918;12.530;2023-06-22T00:30:49;16.20;99.90
13426;DHT22;6785;57.918;12.530;2023-06-22T00:33:16;16.20;99.90
13426;DHT22;6785;57.918;12.530;2023-06-22T00:35:42;16.20;99.90
13426;DHT22;6785;57.918;12.530;2023-06-22T00:38:10;16.20;99.90
13426;DHT22;6785;57.918;12.530;2023-06-22T00:40:37;16.20;99.90
13426;DHT22;6785;57.918;12.530;2023-06-22T00:43:05;16.20;99.90
13426;DHT22;6785;57.918;12.530;2023-06-22T00:45:32;16.20;99.90
13426;DHT22;6785;57.918;12.530;2023-06-22T00:48:00;16.20;99.90
13426;DHT22;6785;57.918;12.530;2023-06-22T00:50:29;16.20;99.90
13426;DHT22;6785;57.918;12.530;2023-06-22T00:53:00;16.20;99.90
13426;DHT22;6785;57.918;12.530;2023-06-22T00:55:33;16.20;99.90
13426;DHT22;6785;57.918;12.530;2023-06-22T00:58:06;16.20;99.90
13426;DHT22;6785;57.918;12.530;2023-06-22T01:00:36;16.10;99.90
13426;DHT22;6785;57.918;12.530;2023-06-22T01:03:04;16.20;99.90
13426;DHT22;6785;57.918;12.530;2023-06-22T01:05:34;16.20;99.90
13426;DHT22;6785;57.918;12.530;2023-06-22T01:08:08;16.10;99.90
13426;DHT22;6785;57.918;12.530;2023-06-22T01:10:50;16.10;99.90
13426;DHT22;6785;57.918;12.530;2023-06-22T01:13:28;16.10;99.90
13426;DHT22;6785;57.918;12.530;2023-06-22T01:16:02;16.10;99.90
13426;DHT22;6785;57.918;12.530;2023-06-22T01:18:33;16.10;99.90
13426;DHT22;6785;57.918;12.530;2023-06-22T01:21:04;16.00;99.90
13426;DHT22;6785;57.918;12.530;2023-06-22T01:23:48;16.00;99.90
13426;DHT22;6785;57.918;12.530;2023-06-22T01:26:28;16.00;99.90
13426;DHT22;6785;57.918;12.530;2023-06-22T01:29:04;16.00;99.90
13426;DHT22;6785;57.918;12.530;2023-06-22T01:31:33;15.90;99.90
13426;DHT22;6785;57.918;12.530;2023-06-22T01:34:03;15.90;99.90
13426;DHT22;6785;57.918;12.530;2023-06-22T01:36:33;15.90;99.90
13426;DHT22;6785;57.918;12.530;2023-06-22T01:39:02;15.80;99.90
13426;DHT22;6785;57.918;12.530;2023-06-22T01:41:35;15.80;99.90
13426;DHT22;6785;57.918;12.530;2023-06-22T01:44:06;15.80;99.90
13426;DHT22;6785;57.918;12.530;2023-06-22T01:46:35;15.70;99.90
13426;DHT22;6785;57.918;12.530;2023-06-22T01:49:02;15.70;99.90
13426;DHT22;6785;57.918;12.530;2023-06-22T01:51:30;15.70;99.90
13426;DHT22;6785;57.918;12.530;2023-06-22T01:53:57;15.60;99.90
13426;DHT22;6785;57.918;12.530;2023-06-22T01:56:25;15.60;99.90
13426;DHT22;6785;57.918;12.530;2023-06-22T01:59:00;15.60;99.90
13426;DHT22;6785;57.918;12.530;2023-06-22T02:01:41;15.70;99.90
13426;DHT22;6785;57.918;12.530;2023-06-22T02:04:13;15.60;99.90
13426;DHT22;6785;57.918;12.530;2023-06-22T02:06:47;15.60;99.90
13426;DHT22;6785;57.918;12.530;2023-06-22T02:09:22;15.70;99.90
13426;DHT22;6785;57.918;12.530;2023-06-22T02:11:52;15.70;99.90
13426;DHT22;6785;57.918;12.530;2023-06-22T02:14:24;15.70;99.90
13426;DHT22;6785;57.918;12.530;2023-06-22T02:16:51;15.70;99.90
13426;DHT22;6785;57.918;12.530;2023-06-22T02:19:23;15.70;99.90
13426;DHT22;6785;57.918;12.530;2023-06-22T02:21:50;15.80;99.90
13426;DHT22;6785;57.918;12.530;2023-06-22T02:24:17;15.80;99.90
13426;DHT22;6785;57.918;12.530;2023-06-22T02:26:44;15.80;99.90
13426;DHT22;6785;57.918;12.530;2023-06-22T02:29:11;15.80;99.90
13426;DHT22;6785;57.918;12.530;2023-06-22T02:31:40;15.70;99.90
13426;DHT22;6785;57.918;12.530;2023-06-22T02:34:07;15.80;99.90
13426;DHT22;6785;57.918;12.530;2023-06-22T02:36:34;15.80;99.90
13426;DHT22;6785;57.918;12.530;2023-06-22T02:39:01;15.80;99.90
13426;DHT22;6785;57.918;12.530;2023-06-22T02:41:29;15.80;99.90
13426;DHT22;6785;57.918;12.530;2023-06-22T02:46:30;15.90;99.90
13426;DHT22;6785;57.918;12.530;2023-06-22T02:48:58;15.90;99.90
13426;DHT22;6785;57.918;12.530;2023-06-22T02:51:25;15.90;99.90
13426;DHT22;6785;57.918;12.530;2023-06-22T02:53:52;15.90;99.90
13426;DHT22;6785;57.918;12.530;2023-06-22T02:56:23;15.90;99.90
13426;DHT22;6785;57.918;12.530;2023-06-22T02:58:50;15.90;99.90
13426;DHT22;6785;57.918;12.530;2023-06-22T03:01:17;15.90;99.90
13426;DHT22;6785;57.918;12.530;2023-06-22T03:03:48;15.90;99.90
13426;DHT22;6785;57.918;12.530;2023-06-22T03:06:17;15.90;99.90
13426;DHT22;6785;57.918;12.530;2023-06-22T03:08:48;15.90;99.90
13426;DHT22;6785;57.918;12.530;2023-06-22T03:11:15;15.90;99.90
13426;DHT22;6785;57.918;12.530;2023-06-22T03:13:42;15.90;99.90
13426;DHT22;6785;57.918;12.530;2023-06-22T03:16:11;16.00;99.90
13426;DHT22;6785;57.918;12.530;2023-06-22T03:18:38;16.00;99.90
13426;DHT22;6785;57.918;12.530;2023-06-22T03:21:05;16.00;99.90
13426;DHT22;6785;57.918;12.530;2023-06-22T03:23:33;16.00;99.90
13426;DHT22;6785;57.918;12.530;2023-06-22T03:26:00;16.00;99.90
13426;DHT22;6785;57.918;12.530;2023-06-22T03:28:27;16.10;99.90
13426;DHT22;6785;57.918;12.530;2023-06-22T03:30:56;16.10;99.90
13426;DHT22;6785;57.918;12.530;2023-06-22T03:33:24;16.10;99.90
13426;DHT22;6785;57.918;12.530;2023-06-22T03:35:51;16.10;99.90
13426;DHT22;6785;57.918;12.530;2023-06-22T03:38:19;16.10;99.90
13426;DHT22;6785;57.918;12.530;2023-06-22T03:40:47;16.10;99.90
13426;DHT22;6785;57.918;12.530;2023-06-22T03:43:15;16.10;99.90
13426;DHT22;6785;57.918;12.530;2023-06-22T03:45:42;16.10;99.90
13426;DHT22;6785;57.918;12.530;2023-06-22T03:48:10;16.20;99.90
13426;DHT22;6785;57.918;12.530;2023-06-22T03:50:37;16.20;99.90
13426;DHT22;6785;57.918;12.530;2023-06-22T03:53:04;16.20;99.90
13426;DHT22;6785;57.918;12.530;2023-06-22T03:55:34;16.20;99.90
13426;DHT22;6785;57.918;12.530;2023-06-22T03:58:02;16.20;99.90
13426;DHT22;6785;57.918;12.530;2023-06-22T04:00:31;16.20;99.90
13426;DHT22;6785;57.918;12.530;2023-06-22T04:02:58;16.20;99.90
13426;DHT22;6785;57.918;12.530;2023-06-22T04:05:25;16.20;99.90
13426;DHT22;6785;57.918;12.530;2023-06-22T04:07:52;16.20;99.90
13426;DHT22;6785;57.918;12.530;2023-06-22T04:10:19;16.30;99.90
13426;DHT22;6785;57.918;12.530;2023-06-22T04:12:46;16.20;99.90
13426;DHT22;6785;57.918;12.530;2023-06-22T04:15:15;16.20;99.90
13426;DHT22;6785;57.918;12.530;2023-06-22T04:17:42;16.30;99.90
13426;DHT22;6785;57.918;12.530;2023-06-22T04:20:09;16.30;99.90
13426;DHT22;6785;57.918;12.530;2023-06-22T04:22:36;16.30;99.90
13426;DHT22;6785;57.918;12.530;2023-06-22T04:25:03;16.30;99.90
13426;DHT22;6785;57.918;12.530;2023-06-22T04:27:33;16.20;99.90
13426;DHT22;6785;57.918;12.530;2023-06-22T04:30:03;16.20;99.90
13426;DHT22;6785;57.918;12.530;2023-06-22T04:32:34;16.20;99.90
13426;DHT22;6785;57.918;12.530;2023-06-22T04:35:02;16.20;99.90
13426;DHT22;6785;57.918;12.530;2023-06-22T04:37:30;16.30;99.90
13426;DHT22;6785;57.918;12.530;2023-06-22T04:39:57;16.30;99.90
13426;DHT22;6785;57.918;12.530;2023-06-22T04:42:26;16.30;99.90
13426;DHT22;6785;57.918;12.530;2023-06-22T04:44:53;16.30;99.90
13426;DHT22;6785;57.918;12.530;2023-06-22T04:47:20;16.40;99.90
13426;DHT22;6785;57.918;12.530;2023-06-22T04:49:49;16.40;99.90
13426;DHT22;6785;57.918;12.530;2023-06-22T04:52:16;16.40;99.90
13426;DHT22;6785;57.918;12.530;2023-06-22T04:54:45;16.50;99.90
13426;DHT22;6785;57.918;12.530;2023-06-22T04:57:14;16.50;99.90
13426;DHT22;6785;57.918;12.530;2023-06-22T04:59:41;16.50;99.90
13426;DHT22;6785;57.918;12.530;2023-06-22T05:02:09;16.50;99.90
13426;DHT22;6785;57.918;12.530;2023-06-22T05:04:36;16.50;99.90
13426;DHT22;6785;57.918;12.530;2023-06-22T05:07:05;16.50;99.90
13426;DHT22;6785;57.918;12.530;2023-06-22T05:09:32;16.50;99.90
13426;DHT22;6785;57.918;12.530;2023-06-22T05:12:00;16.60;99.90
13426;DHT22;6785;57.918;12.530;2023-06-22T05:14:28;16.60;99.90
13426;DHT22;6785;57.918;12.530;2023-06-22T05:16:55;16.60;99.90
13426;DHT22;6785;57.918;12.530;2023-06-22T05:19:24;16.70;99.90
13426;DHT22;6785;57.918;12.530;2023-06-22T05:21:51;16.70;99.90
13426;DHT22;6785;57.918;12.530;2023-06-22T05:24:19;16.70;99.90
13426;DHT22;6785;57.918;12.530;2023-06-22T05:26:46;16.70;99.90
13426;DHT22;6785;57.918;12.530;2023-06-22T05:29:13;16.80;99.90
13426;DHT22;6785;57.918;12.530;2023-06-22T05:31:40;16.80;99.90
13426;DHT22;6785;57.918;12.530;2023-06-22T05:34:07;16.90;99.90
13426;DHT22;6785;57.918;12.530;2023-06-22T05:36:34;16.90;99.90
13426;DHT22;6785;57.918;12.530;2023-06-22T05:39:11;17.10;99.90
13426;DHT22;6785;57.918;12.530;2023-06-22T05:41:40;17.10;99.90
13426;DHT22;6785;57.918;12.530;2023-06-22T05:44:08;17.10;99.90
13426;DHT22;6785;57.918;12.530;2023-06-22T05:46:35;17.10;99.90
13426;DHT22;6785;57.918;12.530;2023-06-22T05:49:02;17.00;99.90
13426;DHT22;6785;57.918;12.530;2023-06-22T05:51:29;17.00;99.90
13426;DHT22;6785;57.918;12.530;2023-06-22T05:53:56;17.10;99.90
13426;DHT22;6785;57.918;12.530;2023-06-22T05:56:23;17.10;99.90
13426;DHT22;6785;57.918;12.530;2023-06-22T05:58:51;17.00;99.90
13426;DHT22;6785;57.918;12.530;2023-06-22T06:01:18;17.10;99.90
13426;DHT22;6785;57.918;12.530;2023-06-22T06:03:45;17.20;99.90
13426;DHT22;6785;57.918;12.530;2023-06-22T06:06:14;17.10;99.90
13426;DHT22;6785;57.918;12.530;2023-06-22T06:08:41;17.30;99.90
13426;DHT22;6785;57.918;12.530;2023-06-22T06:11:08;17.40;99.90
13426;DHT22;6785;57.918;12.530;2023-06-22T06:13:35;17.40;99.90
13426;DHT22;6785;57.918;12.530;2023-06-22T06:16:04;17.50;99.90
13426;DHT22;6785;57.918;12.530;2023-06-22T06:18:31;17.50;99.90
13426;DHT22;6785;57.918;12.530;2023-06-22T06:20:58;17.50;99.90
13426;DHT22;6785;57.918;12.530;2023-06-22T06:23:25;17.60;99.90
13426;DHT22;6785;57.918;12.530;2023-06-22T06:25:52;17.70;99.90
13426;DHT22;6785;57.918;12.530;2023-06-22T06:28:19;17.60;99.90
13426;DHT22;6785;57.918;12.530;2023-06-22T06:30:46;17.80;99.90
13426;DHT22;6785;57.918;12.530;2023-06-22T06:33:15;17.80;99.90
13426;DHT22;6785;57.918;12.530;2023-06-22T06:35:42;17.90;99.90
13426;DHT22;6785;57.918;12.530;2023-06-22T06:38:09;17.90;99.90
13426;DHT22;6785;57.918;12.530;2023-06-22T06:40:36;18.10;99.90
13426;DHT22;6785;57.918;12.530;2023-06-22T06:43:03;18.20;99.90
13426;DHT22;6785;57.918;12.530;2023-06-22T06:45:30;18.30;99.90
13426;DHT22;6785;57.918;12.530;2023-06-22T06:47:58;18.40;99.90
13426;DHT22;6785;57.918;12.530;2023-06-22T06:50:27;18.40;99.90
13426;DHT22;6785;57.918;12.530;2023-06-22T06:52:54;18.50;99.90
13426;DHT22;6785;57.918;12.530;2023-06-22T06:55:23;18.60;99.90
13426;DHT22;6785;57.918;12.530;2023-06-22T06:57:50;18.70;99.90
13426;DHT22;6785;57.918;12.530;2023-06-22T07:00:18;18.80;99.90
13426;DHT22;6785;57.918;12.530;2023-06-22T07:02:46;18.70;99.90
13426;DHT22;6785;57.918;12.530;2023-06-22T07:05:14;18.70;99.90
13426;DHT22;6785;57.918;12.530;2023-06-22T07:07:42;18.70;99.90
13426;DHT22;6785;57.918;12.530;2023-06-22T07:10:10;19.00;99.90
13426;DHT22;6785;57.918;12.530;2023-06-22T07:12:37;19.30;99.90
13426;DHT22;6785;57.918;12.530;2023-06-22T07:15:05;19.70;99.90
13426;DHT22;6785;57.918;12.530;2023-06-22T07:17:34;19.60;99.90
13426;DHT22;6785;57.918;12.530;2023-06-22T07:20:01;19.50;99.90
13426;DHT22;6785;57.918;12.530;2023-06-22T07:22:34;19.50;99.90
13426;DHT22;6785;57.918;12.530;2023-06-22T07:25:02;19.40;99.90
13426;DHT22;6785;57.918;12.530;2023-06-22T07:27:35;19.60;99.90
13426;DHT22;6785;57.918;12.530;2023-06-22T07:30:05;19.90;99.90
13426;DHT22;6785;57.918;12.530;2023-06-22T07:32:32;20.10;99.90
13426;DHT22;6785;57.918;12.530;2023-06-22T07:35:00;20.20;99.90
13426;DHT22;6785;57.918;12.530;2023-06-22T07:37:27;20.20;99.90
13426;DHT22;6785;57.918;12.530;2023-06-22T07:39:55;20.20;99.90
13426;DHT22;6785;57.918;12.530;2023-06-22T07:42:25;20.50;99.90
13426;DHT22;6785;57.918;12.530;2023-06-22T07:44:53;20.80;99.90
13426;DHT22;6785;57.918;12.530;2023-06-22T07:47:21;21.20;99.90
13426;DHT22;6785;57.918;12.530;2023-06-22T07:49:50;21.10;99.90
13426;DHT22;6785;57.918;12.530;2023-06-22T07:52:20;20.80;99.90
13426;DHT22;6785;57.918;12.530;2023-06-22T07:54:47;20.70;99.90
13426;DHT22;6785;57.918;12.530;2023-06-22T07:57:14;20.70;99.90
13426;DHT22;6785;57.918;12.530;2023-06-22T07:59:42;21.00;99.90
13426;DHT22;6785;57.918;12.530;2023-06-22T08:02:09;21.30;99.90
13426;DHT22;6785;57.918;12.530;2023-06-22T08:04:36;21.40;99.90
13426;DHT22;6785;57.918;12.530;2023-06-22T08:07:04;21.30;99.90
13426;DHT22;6785;57.918;12.530;2023-06-22T08:09:32;21.50;99.90
13426;DHT22;6785;57.918;12.530;2023-06-22T08:11:59;21.30;99.90
13426;DHT22;6785;57.918;12.530;2023-06-22T08:14:27;21.40;99.90
13426;DHT22;6785;57.918;12.530;2023-06-22T08:16:57;21.70;99.90
13426;DHT22;6785;57.918;12.530;2023-06-22T08:19:24;22.00;99.90
13426;DHT22;6785;57.918;12.530;2023-06-22T08:21:51;21.90;99.90
13426;DHT22;6785;57.918;12.530;2023-06-22T08:24:18;21.80;99.90
13426;DHT22;6785;57.918;12.530;2023-06-22T08:26:45;22.00;99.90
13426;DHT22;6785;57.918;12.530;2023-06-22T08:29:12;22.30;99.90
13426;DHT22;6785;57.918;12.530;2023-06-22T08:31:40;22.40;99.90
13426;DHT22;6785;57.918;12.530;2023-06-22T08:34:09;22.50;99.90
13426;DHT22;6785;57.918;12.530;2023-06-22T08:36:35;22.40;99.90
13426;DHT22;6785;57.918;12.530;2023-06-22T08:39:06;22.40;99.90
13426;DHT22;6785;57.918;12.530;2023-06-22T08:41:34;22.50;99.90
13426;DHT22;6785;57.918;12.530;2023-06-22T08:44:01;22.50;99.90
13426;DHT22;6785;57.918;12.530;2023-06-22T08:46:29;22.40;99.90
13426;DHT22;6785;57.918;12.530;2023-06-22T08:48:59;22.20;99.90
13426;DHT22;6785;57.918;12.530;2023-06-22T08:51:28;22.40;99.90
13426;DHT22;6785;57.918;12.530;2023-06-22T08:53:55;22.40;99.90
13426;DHT22;6785;57.918;12.530;2023-06-22T08:56:22;22.40;99.90
13426;DHT22;6785;57.918;12.530;2023-06-22T08:58:49;22.50;99.90
13426;DHT22;6785;57.918;12.530;2023-06-22T09:01:16;22.50;99.90
13426;DHT22;6785;57.918;12.530;2023-06-22T09:03:44;22.50;99.90
13426;DHT22;6785;57.918;12.530;2023-06-22T09:06:19;22.40;99.90
13426;DHT22;6785;57.918;12.530;2023-06-22T09:08:48;22.30;99.90
13426;DHT22;6785;57.918;12.530;2023-06-22T09:11:15;22.10;99.90
13426;DHT22;6785;57.918;12.530;2023-06-22T09:13:42;22.00;99.90
13426;DHT22;6785;57.918;12.530;2023-06-22T09:16:10;22.20;99.90
13426;DHT22;6785;57.918;12.530;2023-06-22T09:18:37;22.30;99.90
13426;DHT22;6785;57.918;12.530;2023-06-22T09:21:04;22.50;99.90
13426;DHT22;6785;57.918;12.530;2023-06-22T09:23:31;22.20;99.90
13426;DHT22;6785;57.918;12.530;2023-06-22T09:26:00;22.20;99.90
13426;DHT22;6785;57.918;12.530;2023-06-22T09:28:28;22.00;99.90
13426;DHT22;6785;57.918;12.530;2023-06-22T09:30:55;22.20;99.90
13426;DHT22;6785;57.918;12.530;2023-06-22T09:33:23;22.00;99.90
13426;DHT22;6785;57.918;12.530;2023-06-22T09:35:50;22.00;99.90
13426;DHT22;6785;57.918;12.530;2023-06-22T09:38:17;22.20;99.90
13426;DHT22;6785;57.918;12.530;2023-06-22T09:40:44;22.10;99.90
13426;DHT22;6785;57.918;12.530;2023-06-22T09:43:12;21.90;99.90
13426;DHT22;6785;57.918;12.530;2023-06-22T09:45:40;21.80;99.90
13426;DHT22;6785;57.918;12.530;2023-06-22T09:48:07;22.00;99.90
13426;DHT22;6785;57.918;12.530;2023-06-22T09:50:35;22.00;99.90
13426;DHT22;6785;57.918;12.530;2023-06-22T09:53:02;22.10;99.90
13426;DHT22;6785;57.918;12.530;2023-06-22T09:55:30;22.00;99.90
13426;DHT22;6785;57.918;12.530;2023-06-22T09:57:57;21.70;99.90
13426;DHT22;6785;57.918;12.530;2023-06-22T10:00:25;21.50;99.90
13426;DHT22;6785;57.918;12.530;2023-06-22T10:02:53;21.40;99.90
13426;DHT22;6785;57.918;12.530;2023-06-22T10:05:21;21.40;99.90
13426;DHT22;6785;57.918;12.530;2023-06-22T10:07:48;21.40;99.90
13426;DHT22;6785;57.918;12.530;2023-06-22T10:10:15;21.70;99.90
13426;DHT22;6785;57.918;12.530;2023-06-22T10:12:45;21.90;99.90
13426;DHT22;6785;57.918;12.530;2023-06-22T10:15:14;22.20;99.90
13426;DHT22;6785;57.918;12.530;2023-06-22T10:17:43;22.30;99.90
13426;DHT22;6785;57.918;12.530;2023-06-22T10:20:10;22.50;99.90
13426;DHT22;6785;57.918;12.530;2023-06-22T10:22:38;22.90;99.90
13426;DHT22;6785;57.918;12.530;2023-06-22T10:25:07;22.90;99.90
13426;DHT22;6785;57.918;12.530;2023-06-22T10:27:35;22.50;99.90
13426;DHT22;6785;57.918;12.530;2023-06-22T10:30:02;22.40;99.90
13426;DHT22;6785;57.918;12.530;2023-06-22T10:32:30;22.30;99.90
13426;DHT22;6785;57.918;12.530;2023-06-22T10:35:00;22.10;99.90
13426;DHT22;6785;57.918;12.530;2023-06-22T10:37:27;22.20;99.90
13426;DHT22;6785;57.918;12.530;2023-06-22T10:39:54;22.20;99.90
13426;DHT22;6785;57.918;12.530;2023-06-22T10:42:21;22.40;99.90
13426;DHT22;6785;57.918;12.530;2023-06-22T10:44:50;22.60;99.90
13426;DHT22;6785;57.918;12.530;2023-06-22T10:47:18;22.90;99.90
13426;DHT22;6785;57.918;12.530;2023-06-22T10:49:47;22.90;99.90
13426;DHT22;6785;57.918;12.530;2023-06-22T10:52:16;23.20;99.90
13426;DHT22;6785;57.918;12.530;2023-06-22T10:54:43;23.50;99.90
13426;DHT22;6785;57.918;12.530;2023-06-22T10:57:10;23.50;99.90
13426;DHT22;6785;57.918;12.530;2023-06-22T10:59:37;23.50;99.90
13426;DHT22;6785;57.918;12.530;2023-06-22T11:02:04;23.60;99.90
13426;DHT22;6785;57.918;12.530;2023-06-22T11:04:31;23.80;99.90
13426;DHT22;6785;57.918;12.530;2023-06-22T11:06:58;23.80;99.90
13426;DHT22;6785;57.918;12.530;2023-06-22T11:09:26;23.80;99.90
13426;DHT22;6785;57.918;12.530;2023-06-22T11:11:55;23.80;99.90
13426;DHT22;6785;57.918;12.530;2023-06-22T11:14:24;23.40;99.90
13426;DHT22;6785;57.918;12.530;2023-06-22T11:16:51;22.90;99.90
13426;DHT22;6785;57.918;12.530;2023-06-22T11:19:19;22.80;99.90
13426;DHT22;6785;57.918;12.530;2023-06-22T11:21:45;22.50;99.90
13426;DHT22;6785;57.918;12.530;2023-06-22T11:24:12;22.10;99.90
13426;DHT22;6785;57.918;12.530;2023-06-22T11:26:41;21.70;99.90
13426;DHT22;6785;57.918;12.530;2023-06-22T11:29:08;21.40;99.90
13426;DHT22;6785;57.918;12.530;2023-06-22T11:31:35;21.40;99.90
13426;DHT22;6785;57.918;12.530;2023-06-22T11:34:02;21.40;99.90
13426;DHT22;6785;57.918;12.530;2023-06-22T11:36:29;21.40;99.90
13426;DHT22;6785;57.918;12.530;2023-06-22T11:38:58;21.50;99.90
13426;DHT22;6785;57.918;12.530;2023-06-22T11:41:25;21.50;99.90
13426;DHT22;6785;57.918;12.530;2023-06-22T11:43:53;21.40;99.90
13426;DHT22;6785;57.918;12.530;2023-06-22T11:46:20;21.30;99.90
13426;DHT22;6785;57.918;12.530;2023-06-22T11:48:47;21.30;99.90
13426;DHT22;6785;57.918;12.530;2023-06-22T11:51:14;21.10;99.90
13426;DHT22;6785;57.918;12.530;2023-06-22T11:53:41;21.00;99.90
13426;DHT22;6785;57.918;12.530;2023-06-22T11:56:08;21.00;99.90
13426;DHT22;6785;57.918;12.530;2023-06-22T11:58:34;21.10;99.90
13426;DHT22;6785;57.918;12.530;2023-06-22T12:01:05;21.40;99.90
13426;DHT22;6785;57.918;12.530;2023-06-22T12:03:33;21.60;99.90
13426;DHT22;6785;57.918;12.530;2023-06-22T12:06:00;21.60;99.90
13426;DHT22;6785;57.918;12.530;2023-06-22T12:08:27;21.70;99.90
13426;DHT22;6785;57.918;12.530;2023-06-22T12:10:54;21.90;99.90
13426;DHT22;6785;57.918;12.530;2023-06-22T12:13:21;21.90;99.90
13426;DHT22;6785;57.918;12.530;2023-06-22T12:15:48;21.70;99.90
13426;DHT22;6785;57.918;12.530;2023-06-22T12:18:19;21.90;99.90
13426;DHT22;6785;57.918;12.530;2023-06-22T12:20:46;22.20;99.90
13426;DHT22;6785;57.918;12.530;2023-06-22T12:23:14;22.30;99.90
13426;DHT22;6785;57.918;12.530;2023-06-22T12:25:41;22.70;99.90
13426;DHT22;6785;57.918;12.530;2023-06-22T12:28:09;23.00;99.90
13426;DHT22;6785;57.918;12.530;2023-06-22T12:30:36;23.10;99.90
13426;DHT22;6785;57.918;12.530;2023-06-22T12:33:03;22.80;99.90
13426;DHT22;6785;57.918;12.530;2023-06-22T12:35:32;22.30;99.90
13426;DHT22;6785;57.918;12.530;2023-06-22T12:37:58;22.20;99.90
13426;DHT22;6785;57.918;12.530;2023-06-22T12:40:25;22.20;99.90
13426;DHT22;6785;57.918;12.530;2023-06-22T12:42:52;22.50;99.90
13426;DHT22;6785;57.918;12.530;2023-06-22T12:45:19;22.60;99.90
13426;DHT22;6785;57.918;12.530;2023-06-22T12:47:46;22.50;99.90
13426;DHT22;6785;57.918;12.530;2023-06-22T12:50:15;22.70;99.90
13426;DHT22;6785;57.918;12.530;2023-06-22T12:52:43;22.80;99.90
13426;DHT22;6785;57.918;12.530;2023-06-22T12:55:10;22.80;99.90
13426;DHT22;6785;57.918;12.530;2023-06-22T12:57:39;22.90;99.90
13426;DHT22;6785;57.918;12.530;2023-06-22T13:00:07;23.00;99.90
13426;DHT22;6785;57.918;12.530;2023-06-22T13:02:35;23.10;99.90
13426;DHT22;6785;57.918;12.530;2023-06-22T13:05:03;22.90;99.90
13426;DHT22;6785;57.918;12.530;2023-06-22T13:07:31;23.00;99.90
13426;DHT22;6785;57.918;12.530;2023-06-22T13:09:59;23.10;99.90
13426;DHT22;6785;57.918;12.530;2023-06-22T13:12:26;22.90;99.90
13426;DHT22;6785;57.918;12.530;2023-06-22T13:14:53;23.00;99.90
13426;DHT22;6785;57.918;12.530;2023-06-22T13:17:20;23.00;99.90
13426;DHT22;6785;57.918;12.530;2023-06-22T13:19:47;23.10;99.90
13426;DHT22;6785;57.918;12.530;2023-06-22T13:22:29;23.10;99.90
13426;DHT22;6785;57.918;12.530;2023-06-22T13:24:59;23.00;99.90
13426;DHT22;6785;57.918;12.530;2023-06-22T13:27:27;22.80;99.90
13426;DHT22;6785;57.918;12.530;2023-06-22T13:29:54;22.80;99.90
13426;DHT22;6785;57.918;12.530;2023-06-22T13:32:21;22.90;99.90
13426;DHT22;6785;57.918;12.530;2023-06-22T13:34:48;22.90;99.90
13426;DHT22;6785;57.918;12.530;2023-06-22T13:37:15;23.00;99.90
13426;DHT22;6785;57.918;12.530;2023-06-22T13:39:42;22.90;99.90
13426;DHT22;6785;57.918;12.530;2023-06-22T13:42:11;22.90;99.90
13426;DHT22;6785;57.918;12.530;2023-06-22T13:44:38;22.90;99.90
13426;DHT22;6785;57.918;12.530;2023-06-22T13:47:06;22.80;99.90
13426;DHT22;6785;57.918;12.530;2023-06-22T13:49:33;23.00;99.90
13426;DHT22;6785;57.918;12.530;2023-06-22T13:52:00;23.10;99.90
13426;DHT22;6785;57.918;12.530;2023-06-22T13:54:28;23.20;99.90
13426;DHT22;6785;57.918;12.530;2023-06-22T13:56:55;23.40;99.90
13426;DHT22;6785;57.918;12.530;2023-06-22T13:59:27;23.50;99.90
13426;DHT22;6785;57.918;12.530;2023-06-22T14:01:54;23.60;99.90
13426;DHT22;6785;57.918;12.530;2023-06-22T14:04:22;23.80;99.90
13426;DHT22;6785;57.918;12.530;2023-06-22T14:06:49;23.80;99.90
13426;DHT22;6785;57.918;12.530;2023-06-22T14:09:16;23.80;99.90
13426;DHT22;6785;57.918;12.530;2023-06-22T14:11:43;23.80;99.90
13426;DHT22;6785;57.918;12.530;2023-06-22T14:14:10;23.70;99.90
13426;DHT22;6785;57.918;12.530;2023-06-22T14:16:38;23.60;99.90
13426;DHT22;6785;57.918;12.530;2023-06-22T14:19:05;23.60;99.90
13426;DHT22;6785;57.918;12.530;2023-06-22T14:21:32;23.60;99.90
13426;DHT22;6785;57.918;12.530;2023-06-22T14:23:59;23.40;99.90
13426;DHT22;6785;57.918;12.530;2023-06-22T14:26:26;23.40;99.90
13426;DHT22;6785;57.918;12.530;2023-06-22T14:28:53;23.50;99.90
13426;DHT22;6785;57.918;12.530;2023-06-22T14:31:22;23.50;99.90
13426;DHT22;6785;57.918;12.530;2023-06-22T14:33:53;23.50;99.90
13426;DHT22;6785;57.918;12.530;2023-06-22T14:36:20;23.40;99.90
13426;DHT22;6785;57.918;12.530;2023-06-22T14:38:48;23.50;99.90
13426;DHT22;6785;57.918;12.530;2023-06-22T14:41:15;23.20;99.90
13426;DHT22;6785;57.918;12.530;2023-06-22T14:43:46;23.10;99.90
13426;DHT22;6785;57.918;12.530;2023-06-22T14:46:14;23.10;99.90
13426;DHT22;6785;57.918;12.530;2023-06-22T14:48:41;23.00;99.90
13426;DHT22;6785;57.918;12.530;2023-06-22T14:51:11;22.80;99.90
13426;DHT22;6785;57.918;12.530;2023-06-22T14:53:39;22.80;99.90
13426;DHT22;6785;57.918;12.530;2023-06-22T14:56:06;22.60;99.90
13426;DHT22;6785;57.918;12.530;2023-06-22T14:58:34;22.40;99.90
13426;DHT22;6785;57.918;12.530;2023-06-22T15:01:01;22.40;99.90
13426;DHT22;6785;57.918;12.530;2023-06-22T15:03:29;22.30;99.90
13426;DHT22;6785;57.918;12.530;2023-06-22T15:05:57;22.20;99.90
13426;DHT22;6785;57.918;12.530;2023-06-22T15:08:26;22.20;99.90
13426;DHT22;6785;57.918;12.530;2023-06-22T15:10:53;22.10;99.90
13426;DHT22;6785;57.918;12.530;2023-06-22T15:13:20;22.10;99.90
13426;DHT22;6785;57.918;12.530;2023-06-22T15:15:49;22.20;99.90
13426;DHT22;6785;57.918;12.530;2023-06-22T15:18:17;22.20;99.90
13426;DHT22;6785;57.918;12.530;2023-06-22T15:20:44;22.10;99.90
13426;DHT22;6785;57.918;12.530;2023-06-22T15:23:11;21.90;99.90
13426;DHT22;6785;57.918;12.530;2023-06-22T15:25:40;21.70;99.90
13426;DHT22;6785;57.918;12.530;2023-06-22T15:28:07;21.50;99.90
13426;DHT22;6785;57.918;12.530;2023-06-22T15:30:34;21.40;99.90
13426;DHT22;6785;57.918;12.530;2023-06-22T15:33:02;21.30;99.90
13426;DHT22;6785;57.918;12.530;2023-06-22T15:35:30;21.20;99.90
13426;DHT22;6785;57.918;12.530;2023-06-22T15:37:57;21.30;99.90